Time;durP1;ratioP1;P1;durP2;ratioP2;P2;SDS_P1;SDS_P2;PMS_P1;PMS_P2;Temp;Humidity;BMP_temperature;BMP_pressure;BME280_temperature;BME280_humidity;BME280_pressure;Samples;Min_cycle;Max_cycle;Signal;HPM_P1;HPM_P2
2021/12/26 00:01:00;;;;;;;24.25;11.50;;;2.50;99.90;;;;;;4993262;28;20030;-72
2021/12/26 00:03:30;;;;;;;26.80;11.60;;;2.50;99.90;;;;;;4993347;28;20046;-73
2021/12/26 00:06:00;;;;;;;25.98;11.07;;;2.50;99.90;;;;;;4988493;28;20510;-72
2021/12/26 00:08:25;;;;;;;27.90;12.13;;;2.50;99.90;;;;;;4991854;28;20109;-73
2021/12/26 00:10:51;;;;;;;25.75;11.70;;;2.40;99.90;;;;;;4988227;28;20035;-72
2021/12/26 00:13:19;;;;;;;28.40;11.88;;;2.40;99.90;;;;;;4976318;28;20034;-72
2021/12/26 00:15:45;;;;;;;27.98;11.80;;;2.40;99.90;;;;;;4982446;28;20027;-72
2021/12/26 00:18:10;;;;;;;29.02;12.05;;;2.40;99.90;;;;;;4976894;28;20115;-72
2021/12/26 00:20:37;;;;;;;24.50;11.68;;;2.40;99.90;;;;;;4990830;28;20041;-72
2021/12/26 00:23:03;;;;;;;29.95;11.95;;;2.50;99.90;;;;;;4990597;28;20034;-72
2021/12/26 00:25:29;;;;;;;31.55;12.40;;;2.40;99.90;;;;;;4983536;28;20032;-73
2021/12/26 00:27:55;;;;;;;26.98;12.20;;;2.40;99.90;;;;;;4994382;28;20034;-73
2021/12/26 00:30:23;;;;;;;26.13;11.90;;;2.40;99.90;;;;;;5008154;28;20066;-73
2021/12/26 00:32:50;;;;;;;25.45;11.75;;;2.40;99.90;;;;;;4994613;28;20064;-73
2021/12/26 00:35:18;;;;;;;34.75;12.80;;;2.40;99.90;;;;;;4995097;28;20033;-73
2021/12/26 00:37:44;;;;;;;34.95;12.50;;;2.40;99.90;;;;;;4978608;28;20035;-73
2021/12/26 00:40:13;;;;;;;25.48;12.15;;;2.40;99.90;;;;;;5003907;28;20026;-73
2021/12/26 00:42:40;;;;;;;29.58;12.40;;;2.40;99.90;;;;;;4989789;28;20108;-73
2021/12/26 00:45:07;;;;;;;35.40;13.70;;;2.50;99.90;;;;;;4995876;28;20030;-73
2021/12/26 00:47:36;;;;;;;28.05;12.32;;;2.40;99.90;;;;;;4988592;28;20029;-73
2021/12/26 00:50:05;;;;;;;28.30;11.75;;;2.40;99.90;;;;;;4986767;28;20022;-73
2021/12/26 00:52:30;;;;;;;31.73;13.18;;;2.50;99.90;;;;;;4992355;28;20473;-73
2021/12/26 00:54:56;;;;;;;27.08;12.43;;;2.50;99.90;;;;;;4991562;28;20080;-73
2021/12/26 00:57:22;;;;;;;26.80;12.20;;;2.50;99.90;;;;;;4993582;28;20021;-73
2021/12/26 00:59:47;;;;;;;27.45;12.75;;;2.50;99.90;;;;;;4992241;28;20064;-73
2021/12/26 01:02:13;;;;;;;30.48;12.35;;;2.50;99.90;;;;;;4990605;28;20041;-73
2021/12/26 01:04:39;;;;;;;26.45;12.25;;;2.50;99.90;;;;;;4986216;28;20392;-73
2021/12/26 01:07:13;;;;;;;29.30;12.50;;;2.50;99.90;;;;;;4990931;28;20475;-73
2021/12/26 01:09:39;;;;;;;31.80;12.93;;;2.50;99.90;;;;;;4990060;28;20497;-73
2021/12/26 01:12:12;;;;;;;31.35;12.75;;;2.50;99.90;;;;;;4992526;28;20115;-73
2021/12/26 01:14:48;;;;;;;31.60;12.65;;;2.50;99.90;;;;;;4990551;28;20022;-73
2021/12/26 01:17:18;;;;;;;34.72;13.80;;;2.50;99.90;;;;;;4980719;28;20235;-73
2021/12/26 01:19:48;;;;;;;30.02;12.38;;;2.50;99.90;;;;;;4987602;28;20017;-73
2021/12/26 01:22:16;;;;;;;30.80;12.60;;;2.50;99.90;;;;;;4991014;28;20030;-73
2021/12/26 01:24:43;;;;;;;36.17;12.75;;;2.50;99.90;;;;;;4988674;28;20038;-73
2021/12/26 01:27:09;;;;;;;27.55;12.00;;;2.60;99.90;;;;;;5003908;28;20109;-73
2021/12/26 01:29:36;;;;;;;30.75;12.57;;;2.50;99.90;;;;;;4977601;28;20053;-73
2021/12/26 01:32:06;;;;;;;31.63;13.02;;;2.60;99.90;;;;;;4979300;28;20040;-73
2021/12/26 01:34:32;;;;;;;31.83;12.07;;;2.60;99.90;;;;;;4980829;28;20041;-73
2021/12/26 01:36:57;;;;;;;29.38;11.30;;;2.60;99.90;;;;;;4984604;28;20037;-73
2021/12/26 01:39:23;;;;;;;25.98;11.98;;;2.60;99.90;;;;;;5007872;28;20033;-73
2021/12/26 01:41:49;;;;;;;25.45;11.18;;;2.60;99.90;;;;;;4999166;28;20029;-73
2021/12/26 01:44:16;;;;;;;29.10;11.75;;;2.60;99.90;;;;;;4990601;28;20030;-73
2021/12/26 01:46:43;;;;;;;25.48;11.90;;;2.60;99.90;;;;;;4993103;28;20030;-73
2021/12/26 01:49:09;;;;;;;24.63;11.23;;;2.60;99.90;;;;;;4991099;28;20117;-73
2021/12/26 01:51:36;;;;;;;27.55;11.73;;;2.60;99.90;;;;;;4984981;28;20105;-73
2021/12/26 01:54:08;;;;;;;32.65;11.93;;;2.70;99.90;;;;;;4980588;28;20030;-73
2021/12/26 01:56:34;;;;;;;30.20;12.60;;;2.70;99.90;;;;;;4977035;28;20026;-73
2021/12/26 01:59:00;;;;;;;32.17;12.55;;;2.70;99.90;;;;;;4980056;28;20034;-73
2021/12/26 02:01:27;;;;;;;26.48;11.45;;;2.70;99.90;;;;;;4994473;28;20557;-73
2021/12/26 02:03:52;;;;;;;29.73;12.80;;;2.70;99.90;;;;;;4985217;28;20034;-73
2021/12/26 02:06:18;;;;;;;28.85;11.55;;;2.60;99.90;;;;;;5005368;28;20030;-73
2021/12/26 02:08:44;;;;;;;34.03;12.85;;;2.60;99.90;;;;;;4993507;28;20057;-73
2021/12/26 02:11:10;;;;;;;33.55;12.43;;;2.60;99.90;;;;;;4985416;28;20065;-73
2021/12/26 02:13:38;;;;;;;33.83;12.48;;;2.60;99.90;;;;;;4987917;28;20129;-73
2021/12/26 02:16:07;;;;;;;31.25;12.75;;;2.60;99.90;;;;;;4984981;28;20026;-73
2021/12/26 02:18:33;;;;;;;31.65;13.25;;;2.60;99.90;;;;;;4997138;28;20056;-73
2021/12/26 02:23:35;;;;;;;34.40;13.50;;;2.60;99.90;;;;;;5008553;28;20025;-73
2021/12/26 02:28:45;;;;;;;33.88;13.63;;;2.60;99.90;;;;;;5004424;28;20057;-73
2021/12/26 02:31:11;;;;;;;36.20;12.98;;;2.60;99.90;;;;;;4999919;28;20034;-73
2021/12/26 02:33:37;;;;;;;31.95;12.75;;;2.60;99.90;;;;;;4987503;28;20105;-73
2021/12/26 02:36:05;;;;;;;35.28;12.75;;;2.60;99.90;;;;;;4990998;28;20030;-73
2021/12/26 02:38:32;;;;;;;33.85;13.73;;;2.60;99.90;;;;;;4993125;28;20025;-73
2021/12/26 02:40:59;;;;;;;31.88;13.85;;;2.60;99.90;;;;;;4990188;28;20057;-73
2021/12/26 02:43:27;;;;;;;35.38;14.93;;;2.60;99.90;;;;;;4992777;28;20022;-73
2021/12/26 02:45:53;;;;;;;35.78;14.30;;;2.60;99.90;;;;;;4989161;28;20116;-73
2021/12/26 02:48:20;;;;;;;36.03;13.93;;;2.60;99.90;;;;;;4985602;28;20140;-73
2021/12/26 02:50:50;;;;;;;39.45;13.70;;;2.60;99.90;;;;;;4987252;28;20505;-73
2021/12/26 02:53:20;;;;;;;37.88;14.32;;;2.50;99.90;;;;;;4992293;28;20038;-73
2021/12/26 02:55:50;;;;;;;40.15;14.40;;;2.60;99.90;;;;;;4994609;28;20255;-73
2021/12/26 02:58:17;;;;;;;39.75;14.32;;;2.60;99.90;;;;;;4985530;28;20026;-73
2021/12/26 03:01:05;;;;;;;36.65;15.10;;;2.50;99.90;;;;;;4988752;28;20026;-73
2021/12/26 03:03:31;;;;;;;33.03;14.00;;;2.50;99.90;;;;;;4982463;28;20564;-73
2021/12/26 03:06:05;;;;;;;34.67;13.85;;;2.50;99.90;;;;;;5009930;28;20037;-73
2021/12/26 03:08:30;;;;;;;32.67;14.07;;;2.50;99.90;;;;;;4989326;28;20030;-73
2021/12/26 03:10:57;;;;;;;34.15;14.82;;;2.50;99.90;;;;;;4976551;28;20045;-73
2021/12/26 03:13:23;;;;;;;36.88;14.82;;;2.50;99.90;;;;;;4990534;28;20113;-73
2021/12/26 03:15:49;;;;;;;38.13;15.07;;;2.50;99.90;;;;;;4986884;28;20030;-73
2021/12/26 03:18:15;;;;;;;34.40;14.68;;;2.50;99.90;;;;;;4989090;28;20040;-73
2021/12/26 03:20:45;;;;;;;38.88;14.75;;;2.50;99.90;;;;;;4985881;28;20026;-73
2021/12/26 03:23:15;;;;;;;36.63;14.80;;;2.50;99.90;;;;;;4990623;28;20033;-73
2021/12/26 03:25:41;;;;;;;37.30;14.27;;;2.50;99.90;;;;;;4997760;28;20026;-70
2021/12/26 03:28:09;;;;;;;35.50;14.60;;;2.50;99.90;;;;;;4975241;28;20034;-73
2021/12/26 03:30:36;;;;;;;33.15;14.23;;;2.50;99.90;;;;;;4981087;28;20475;-73
2021/12/26 03:33:04;;;;;;;38.42;14.15;;;2.50;99.90;;;;;;4978916;28;20026;-73
2021/12/26 03:35:32;;;;;;;40.00;15.52;;;2.50;99.90;;;;;;4980031;28;20104;-73
2021/12/26 03:38:00;;;;;;;37.03;14.82;;;2.50;99.90;;;;;;4985998;28;20088;-73
2021/12/26 03:40:26;;;;;;;34.53;14.05;;;2.50;99.90;;;;;;4982033;28;20022;-73
2021/12/26 03:42:53;;;;;;;37.63;14.65;;;2.50;99.90;;;;;;4984009;28;20092;-73
2021/12/26 03:45:20;;;;;;;37.53;15.40;;;2.50;99.90;;;;;;4979257;28;20073;-74
2021/12/26 03:47:49;;;;;;;33.47;14.00;;;2.50;99.90;;;;;;4993158;28;20028;-74
2021/12/26 03:50:20;;;;;;;39.40;14.55;;;2.60;99.90;;;;;;4989017;28;20514;-73
2021/12/26 03:52:50;;;;;;;38.90;15.52;;;2.60;99.90;;;;;;4990333;28;20112;-73
2021/12/26 03:55:16;;;;;;;38.25;14.32;;;2.60;99.90;;;;;;4988660;28;20108;-73
2021/12/26 03:57:42;;;;;;;36.33;14.75;;;2.60;99.90;;;;;;5003107;28;20490;-73
2021/12/26 04:00:09;;;;;;;40.88;15.52;;;2.60;99.90;;;;;;4977395;28;20064;-73
2021/12/26 04:02:35;;;;;;;43.85;14.95;;;2.60;99.90;;;;;;4986991;28;20394;-73
2021/12/26 04:05:00;;;;;;;36.80;13.35;;;2.60;99.90;;;;;;4980695;28;20031;-73
2021/12/26 04:07:26;;;;;;;37.83;14.63;;;2.60;99.90;;;;;;4983108;28;20053;-74
2021/12/26 04:09:52;;;;;;;39.05;14.82;;;2.60;99.90;;;;;;4981496;28;20033;-74
2021/12/26 04:12:17;;;;;;;36.33;13.98;;;2.60;99.90;;;;;;4988729;28;20041;-73
2021/12/26 04:14:43;;;;;;;40.30;15.43;;;2.60;99.90;;;;;;4984841;28;20023;-73
2021/12/26 04:17:09;;;;;;;39.20;14.10;;;2.60;99.90;;;;;;4983233;28;20018;-73
2021/12/26 04:19:35;;;;;;;38.10;14.88;;;2.60;99.90;;;;;;4985493;28;20018;-73
2021/12/26 04:22:02;;;;;;;43.85;15.05;;;2.60;99.90;;;;;;4985214;28;20061;-73
2021/12/26 04:24:30;;;;;;;40.90;15.27;;;2.60;99.90;;;;;;4981857;28;20026;-73
2021/12/26 04:26:56;;;;;;;37.08;14.27;;;2.60;99.90;;;;;;4981186;28;20117;-73
2021/12/26 04:29:21;;;;;;;42.42;15.25;;;2.70;99.90;;;;;;4987515;28;20113;-73
2021/12/26 04:31:47;;;;;;;40.38;14.07;;;2.60;99.90;;;;;;4985892;28;20026;-73
2021/12/26 04:34:13;;;;;;;44.25;15.40;;;2.70;99.90;;;;;;4986546;28;20038;-73
2021/12/26 04:36:38;;;;;;;41.33;14.43;;;2.60;99.90;;;;;;4985940;28;20054;-73
2021/12/26 04:39:04;;;;;;;38.75;15.35;;;2.60;99.90;;;;;;4987292;28;20034;-74
2021/12/26 04:41:30;;;;;;;40.70;14.95;;;2.60;99.90;;;;;;4987833;28;20034;-74
2021/12/26 04:43:56;;;;;;;44.40;15.55;;;2.60;99.90;;;;;;4982609;28;20025;-73
2021/12/26 04:46:21;;;;;;;42.72;15.88;;;2.60;99.90;;;;;;4982057;28;20121;-74
2021/12/26 04:48:47;;;;;;;41.13;15.50;;;2.60;99.90;;;;;;4978852;28;20030;-74
2021/12/26 04:51:14;;;;;;;41.53;15.23;;;2.60;99.90;;;;;;4983472;28;20080;-74
2021/12/26 04:53:40;;;;;;;42.83;15.55;;;2.60;99.90;;;;;;4990276;28;20471;-73
2021/12/26 04:56:07;;;;;;;44.53;14.70;;;2.60;99.90;;;;;;4985382;28;20445;-74
2021/12/26 04:58:33;;;;;;;49.00;16.48;;;2.60;99.90;;;;;;4993732;28;20466;-74
2021/12/26 05:00:59;;;;;;;41.58;15.45;;;2.70;99.90;;;;;;4983209;28;20045;-73
2021/12/26 05:03:25;;;;;;;40.58;15.68;;;2.60;99.90;;;;;;4982565;28;20038;-74
2021/12/26 05:05:50;;;;;;;39.28;15.32;;;2.70;99.90;;;;;;4981396;28;20030;-74
2021/12/26 05:08:16;;;;;;;40.53;15.70;;;2.70;99.90;;;;;;5005800;28;20030;-74
2021/12/26 05:10:42;;;;;;;47.13;15.75;;;2.70;99.90;;;;;;4980554;28;20432;-74
2021/12/26 05:13:08;;;;;;;40.95;16.20;;;2.70;99.90;;;;;;4978196;28;20030;-74
2021/12/26 05:15:34;;;;;;;44.70;15.93;;;2.70;99.90;;;;;;4983730;28;20103;-74
2021/12/26 05:18:00;;;;;;;40.83;15.07;;;2.70;99.90;;;;;;4983142;28;20479;-74
2021/12/26 05:20:27;;;;;;;43.63;15.55;;;2.70;99.90;;;;;;4990329;28;20483;-74
2021/12/26 05:22:55;;;;;;;44.22;16.08;;;2.70;99.90;;;;;;4990834;28;20026;-74
2021/12/26 05:25:22;;;;;;;45.33;16.00;;;2.70;99.90;;;;;;4984737;28;20022;-74
2021/12/26 05:27:49;;;;;;;37.78;15.00;;;2.70;99.90;;;;;;4984396;28;20022;-74
2021/12/26 05:30:17;;;;;;;42.22;15.70;;;2.70;99.90;;;;;;4988152;28;20026;-74
2021/12/26 05:32:44;;;;;;;44.28;16.05;;;2.70;99.90;;;;;;4984078;28;20023;-74
2021/12/26 05:35:11;;;;;;;42.10;15.95;;;2.70;99.90;;;;;;4984579;28;20050;-74
2021/12/26 05:37:38;;;;;;;41.83;15.40;;;2.70;99.90;;;;;;4994261;28;20029;-74
2021/12/26 05:40:06;;;;;;;40.53;14.60;;;2.70;99.90;;;;;;4992657;28;20026;-74
2021/12/26 05:42:33;;;;;;;44.90;15.60;;;2.70;99.90;;;;;;4988800;28;20026;-75
2021/12/26 05:44:59;;;;;;;45.95;15.68;;;2.70;99.90;;;;;;4989060;28;20033;-74
2021/12/26 05:47:25;;;;;;;46.13;15.90;;;2.70;99.90;;;;;;4990236;28;20037;-74
2021/12/26 05:49:51;;;;;;;44.58;15.55;;;2.70;99.90;;;;;;4981130;28;20484;-74
2021/12/26 05:52:18;;;;;;;47.85;16.08;;;2.80;99.90;;;;;;4985843;28;20034;-74
2021/12/26 05:54:45;;;;;;;42.58;15.90;;;2.80;99.90;;;;;;4995421;28;20022;-74
2021/12/26 05:57:11;;;;;;;49.47;17.27;;;2.80;99.90;;;;;;4993882;28;20036;-74
2021/12/26 05:59:36;;;;;;;46.97;15.93;;;2.80;99.90;;;;;;4980489;28;20030;-74
2021/12/26 06:02:02;;;;;;;49.10;17.05;;;2.80;99.90;;;;;;4985679;28;20038;-74
2021/12/26 06:04:28;;;;;;;50.88;16.95;;;2.80;99.90;;;;;;5006824;28;20451;-74
2021/12/26 06:06:54;;;;;;;51.20;17.23;;;2.80;99.90;;;;;;5007773;28;20081;-74
2021/12/26 06:09:20;;;;;;;50.63;17.13;;;2.80;99.90;;;;;;4979973;28;20022;-74
2021/12/26 06:11:46;;;;;;;52.50;16.48;;;2.80;99.90;;;;;;4986494;28;20391;-74
2021/12/26 06:14:12;;;;;;;52.63;17.85;;;2.80;99.90;;;;;;4993131;28;20021;-74
2021/12/26 06:16:37;;;;;;;43.20;16.50;;;2.80;99.90;;;;;;4983301;28;20028;-74
2021/12/26 06:19:03;;;;;;;54.63;17.05;;;2.90;99.90;;;;;;4987697;28;20022;-74
2021/12/26 06:21:29;;;;;;;53.15;17.42;;;2.90;99.90;;;;;;4982961;28;20054;-74
2021/12/26 06:23:54;;;;;;;58.88;18.20;;;2.90;99.90;;;;;;4991333;28;20029;-75
2021/12/26 06:26:22;;;;;;;57.55;18.50;;;2.90;99.90;;;;;;4986047;28;20026;-74
2021/12/26 06:28:48;;;;;;;52.45;18.02;;;2.90;99.90;;;;;;4989842;28;20478;-74
2021/12/26 06:31:14;;;;;;;57.53;18.17;;;2.90;99.90;;;;;;4983081;28;20022;-74
2021/12/26 06:33:40;;;;;;;58.70;17.83;;;2.90;99.90;;;;;;5003744;28;20029;-74
2021/12/26 06:36:08;;;;;;;55.83;19.23;;;2.90;99.90;;;;;;4983127;28;20026;-74
2021/12/26 06:38:35;;;;;;;61.30;19.67;;;2.90;99.90;;;;;;4998117;28;20029;-74
2021/12/26 06:41:01;;;;;;;58.78;18.80;;;2.90;99.90;;;;;;4982892;28;20057;-74
2021/12/26 06:43:27;;;;;;;55.97;17.85;;;2.90;99.90;;;;;;4981508;28;20406;-74
2021/12/26 06:45:54;;;;;;;62.10;18.85;;;2.90;99.90;;;;;;4976454;28;20037;-74
2021/12/26 06:48:20;;;;;;;54.67;18.42;;;2.90;99.90;;;;;;4976096;28;20149;-74
2021/12/26 06:50:46;;;;;;;60.72;19.33;;;2.90;99.90;;;;;;4982405;28;20419;-74
2021/12/26 06:53:12;;;;;;;61.28;19.73;;;2.90;99.90;;;;;;4993878;28;20502;-74
2021/12/26 06:55:39;;;;;;;58.35;19.30;;;2.90;99.90;;;;;;4980810;28;20053;-74
2021/12/26 06:58:05;;;;;;;58.70;20.30;;;2.90;99.90;;;;;;4983340;28;20022;-74
2021/12/26 07:00:30;;;;;;;65.13;19.85;;;2.90;99.90;;;;;;4981150;28;20764;-74
2021/12/26 07:02:56;;;;;;;65.82;20.63;;;2.90;99.90;;;;;;4981038;28;20049;-75
2021/12/26 07:05:22;;;;;;;60.22;19.67;;;2.90;99.90;;;;;;4986382;28;20109;-74
2021/12/26 07:07:48;;;;;;;60.05;19.95;;;2.90;99.90;;;;;;4987398;28;20054;-74
2021/12/26 07:10:14;;;;;;;61.83;19.33;;;2.90;99.90;;;;;;5006150;28;20050;-74
2021/12/26 07:12:39;;;;;;;61.38;19.58;;;2.90;99.90;;;;;;4979854;28;20026;-74
2021/12/26 07:15:06;;;;;;;66.85;20.00;;;2.90;99.90;;;;;;4985804;28;20063;-74
2021/12/26 07:17:32;;;;;;;59.08;19.40;;;2.90;99.90;;;;;;4980546;28;20050;-74
2021/12/26 07:19:57;;;;;;;64.25;20.27;;;2.90;99.90;;;;;;4979554;28;20064;-74
2021/12/26 07:22:23;;;;;;;56.65;19.48;;;2.90;99.90;;;;;;5010069;28;20037;-74
2021/12/26 07:24:49;;;;;;;59.92;20.17;;;2.90;99.90;;;;;;4983999;28;20032;-74
2021/12/26 07:27:15;;;;;;;59.63;19.58;;;2.90;99.90;;;;;;4996452;28;20057;-74
2021/12/26 07:29:41;;;;;;;58.22;19.33;;;2.90;99.90;;;;;;4993800;28;20108;-77
2021/12/26 07:32:08;;;;;;;62.10;19.67;;;2.90;99.90;;;;;;4984775;28;20032;-74
2021/12/26 07:34:34;;;;;;;69.22;20.13;;;2.90;99.90;;;;;;4992655;28;20018;-75
2021/12/26 07:37:01;;;;;;;57.95;19.52;;;2.90;99.90;;;;;;4982861;28;20076;-74
2021/12/26 07:39:27;;;;;;;61.83;18.27;;;2.90;99.90;;;;;;4983136;28;20030;-74
2021/12/26 07:41:52;;;;;;;58.53;18.67;;;2.90;99.90;;;;;;4975461;28;20037;-74
2021/12/26 07:44:18;;;;;;;54.78;18.23;;;2.90;99.90;;;;;;4975942;28;20023;-74
2021/12/26 07:46:44;;;;;;;59.53;19.05;;;2.90;99.90;;;;;;4986473;28;20040;-74
2021/12/26 07:49:10;;;;;;;65.57;20.05;;;2.90;99.90;;;;;;4994225;28;20026;-75
2021/12/26 07:51:36;;;;;;;62.38;19.30;;;2.90;99.90;;;;;;4980902;28;20034;-74
2021/12/26 07:54:02;;;;;;;54.67;18.10;;;2.90;99.90;;;;;;4991232;28;20432;-69
2021/12/26 07:56:29;;;;;;;65.75;19.55;;;2.90;99.90;;;;;;4980743;28;20022;-69
2021/12/26 07:58:55;;;;;;;57.08;19.52;;;3.00;99.90;;;;;;4988453;28;20120;-69
2021/12/26 08:01:21;;;;;;;61.88;18.75;;;3.00;99.90;;;;;;4987059;28;20113;-74
2021/12/26 08:03:47;;;;;;;59.00;18.85;;;3.00;99.90;;;;;;4981942;28;20024;-74
2021/12/26 08:06:18;;;;;;;60.15;18.63;;;3.00;99.90;;;;;;5001268;28;20033;-74
2021/12/26 08:08:45;;;;;;;51.28;17.88;;;3.00;99.90;;;;;;5000657;28;20113;-74
2021/12/26 08:11:11;;;;;;;57.08;17.25;;;3.00;99.90;;;;;;4990685;28;20026;-74
2021/12/26 08:13:36;;;;;;;62.40;18.60;;;3.00;99.90;;;;;;4986592;28;20650;-74
2021/12/26 08:16:02;;;;;;;54.08;17.40;;;3.00;99.90;;;;;;5002342;28;20027;-74
2021/12/26 08:18:28;;;;;;;51.95;16.88;;;3.00;99.90;;;;;;4991841;28;20026;-74
2021/12/26 08:20:54;;;;;;;56.03;18.83;;;3.00;99.90;;;;;;4992635;28;20216;-74
2021/12/26 08:23:19;;;;;;;56.35;17.35;;;3.10;99.90;;;;;;4990153;28;20026;-74
2021/12/26 08:25:45;;;;;;;54.55;17.25;;;3.10;99.90;;;;;;4992345;28;20022;-73
2021/12/26 08:28:11;;;;;;;49.08;17.77;;;3.10;99.90;;;;;;4991184;28;20085;-74
2021/12/26 08:30:37;;;;;;;43.55;16.15;;;3.20;99.90;;;;;;4992231;28;20053;-74
2021/12/26 08:33:06;;;;;;;44.15;16.30;;;3.20;99.90;;;;;;4987955;28;20045;-74
2021/12/26 08:35:33;;;;;;;43.55;16.13;;;3.20;99.90;;;;;;4981799;28;20113;-73
2021/12/26 08:37:58;;;;;;;48.28;15.90;;;3.20;99.90;;;;;;4975952;28;20022;-74
2021/12/26 08:40:24;;;;;;;45.33;15.73;;;3.30;99.90;;;;;;5003484;28;20394;-73
2021/12/26 08:42:50;;;;;;;42.10;15.45;;;3.30;99.90;;;;;;4986934;28;20125;-73
2021/12/26 08:45:16;;;;;;;42.72;15.65;;;3.30;99.90;;;;;;4981292;28;20049;-74
2021/12/26 08:47:42;;;;;;;39.10;14.50;;;3.30;99.90;;;;;;4998151;28;20018;-74
2021/12/26 08:50:10;;;;;;;42.13;15.68;;;3.30;99.90;;;;;;5003096;28;20056;-74
2021/12/26 08:52:36;;;;;;;39.13;15.23;;;3.40;99.90;;;;;;5011017;28;20022;-74
2021/12/26 08:55:02;;;;;;;40.85;14.88;;;3.40;99.90;;;;;;4987438;28;20399;-74
2021/12/26 08:57:29;;;;;;;36.30;14.68;;;3.50;99.90;;;;;;4988779;28;20655;-74
2021/12/26 08:59:55;;;;;;;37.08;15.00;;;3.50;99.90;;;;;;5005867;28;20026;-74
2021/12/26 09:02:20;;;;;;;38.30;14.27;;;3.50;99.90;;;;;;5002191;28;20120;-74
2021/12/26 09:04:46;;;;;;;34.10;13.38;;;3.60;99.90;;;;;;4995348;28;20053;-73
2021/12/26 09:07:11;;;;;;;36.17;14.68;;;3.50;99.90;;;;;;4988880;28;20026;-74
2021/12/26 09:09:38;;;;;;;34.90;13.43;;;3.60;99.90;;;;;;4985721;28;20109;-74
2021/12/26 09:12:04;;;;;;;34.08;13.05;;;3.60;99.90;;;;;;4977547;28;20057;-74
2021/12/26 09:14:31;;;;;;;38.92;13.82;;;3.60;99.90;;;;;;4986895;28;20026;-73
2021/12/26 09:16:58;;;;;;;30.50;13.15;;;3.60;99.90;;;;;;4987212;28;20031;-75
2021/12/26 09:19:27;;;;;;;36.55;14.13;;;3.70;99.90;;;;;;4990968;28;20061;-74
2021/12/26 09:21:54;;;;;;;29.67;12.80;;;3.70;99.90;;;;;;5004378;28;20035;-73
2021/12/26 09:24:20;;;;;;;34.58;13.55;;;3.70;99.90;;;;;;4987597;28;20030;-75
2021/12/26 09:26:46;;;;;;;29.20;12.38;;;3.80;99.90;;;;;;4990947;28;20479;-72
2021/12/26 09:29:12;;;;;;;32.60;12.80;;;3.80;99.90;;;;;;4994245;28;20092;-72
2021/12/26 09:31:38;;;;;;;29.73;13.00;;;3.90;99.90;;;;;;4983044;28;20403;-73
2021/12/26 09:34:03;;;;;;;31.13;13.07;;;3.90;99.90;;;;;;5010369;28;20046;-76
2021/12/26 09:36:29;;;;;;;26.83;12.68;;;3.90;99.90;;;;;;5010268;28;20033;-75
2021/12/26 09:38:55;;;;;;;29.80;12.50;;;4.00;99.90;;;;;;4990675;28;20644;-75
2021/12/26 09:41:21;;;;;;;28.60;11.50;;;4.10;99.90;;;;;;4988630;28;20041;-74
2021/12/26 09:43:47;;;;;;;26.63;11.77;;;4.10;99.90;;;;;;4996397;28;20529;-74
2021/12/26 09:46:13;;;;;;;22.02;10.52;;;4.20;99.90;;;;;;4984717;28;20030;-74
2021/12/26 09:48:39;;;;;;;31.08;11.98;;;4.20;99.90;;;;;;4985659;28;20021;-74
2021/12/26 09:51:05;;;;;;;21.52;10.45;;;4.20;99.90;;;;;;5005128;28;20502;-74
2021/12/26 09:53:39;;;;;;;23.15;10.73;;;4.30;99.90;;;;;;4995218;28;20032;-74
2021/12/26 09:56:07;;;;;;;25.65;11.00;;;4.30;99.90;;;;;;4983327;28;20506;-71
2021/12/26 09:58:34;;;;;;;21.67;10.02;;;4.40;99.90;;;;;;4981801;28;20026;-74
2021/12/26 10:01:00;;;;;;;26.25;11.65;;;4.40;99.90;;;;;;4976621;28;20076;-74
2021/12/26 10:03:35;;;;;;;21.67;10.52;;;4.40;99.90;;;;;;4990897;28;20034;-73
2021/12/26 10:06:13;;;;;;;23.17;10.93;;;4.40;99.90;;;;;;4990312;28;20038;-73
2021/12/26 10:08:57;;;;;;;18.23;10.38;;;4.50;99.90;;;;;;4996046;28;20121;-74
2021/12/26 10:11:29;;;;;;;18.77;9.45;;;4.50;99.90;;;;;;4988178;28;20107;-73
2021/12/26 10:14:00;;;;;;;19.90;9.70;;;4.60;99.90;;;;;;4989720;28;20057;-73
2021/12/26 10:16:30;;;;;;;17.60;9.63;;;4.60;99.90;;;;;;4995906;28;20022;-74
2021/12/26 10:18:56;;;;;;;16.98;9.15;;;4.60;99.90;;;;;;4984371;28;20034;-72
2021/12/26 10:21:39;;;;;;;17.05;9.20;;;4.70;99.90;;;;;;4985884;28;20030;-72
2021/12/26 10:24:05;;;;;;;15.82;8.80;;;4.70;99.90;;;;;;4986977;28;20380;-73
2021/12/26 10:26:34;;;;;;;18.85;9.07;;;4.70;99.90;;;;;;4983392;28;20044;-69
2021/12/26 10:29:13;;;;;;;15.68;8.68;;;4.70;99.90;;;;;;5008275;28;20037;-69
2021/12/26 10:31:45;;;;;;;18.85;9.52;;;4.70;99.90;;;;;;4986455;28;20026;-69
2021/12/26 10:34:35;;;;;;;17.33;9.07;;;4.70;99.90;;;;;;4982757;28;20030;-70
2021/12/26 10:37:05;;;;;;;17.15;9.27;;;4.70;99.90;;;;;;4982614;28;20124;-69
2021/12/26 10:40:01;;;;;;;16.02;9.25;;;4.70;99.90;;;;;;4997617;28;20113;-69
2021/12/26 10:42:35;;;;;;;15.48;8.65;;;4.70;99.90;;;;;;4979075;28;20033;-71
2021/12/26 10:45:03;;;;;;;16.58;8.98;;;4.70;99.90;;;;;;4988087;28;20032;-70
2021/12/26 10:47:31;;;;;;;17.15;9.40;;;4.80;99.90;;;;;;4986832;28;20025;-70
2021/12/26 10:50:07;;;;;;;17.10;9.68;;;4.70;99.90;;;;;;5009134;28;20053;-70
2021/12/26 10:52:50;;;;;;;17.13;9.10;;;4.70;99.90;;;;;;4994805;28;20026;-70
2021/12/26 10:55:49;;;;;;;14.55;8.48;;;4.80;99.90;;;;;;5002596;28;20022;-70
2021/12/26 10:58:21;;;;;;;14.60;8.50;;;4.80;99.90;;;;;;4985975;28;21467;-71
2021/12/26 11:03:22;;;;;;;14.27;8.40;;;4.80;99.90;;;;;;5008131;28;20615;-67
2021/12/26 11:05:50;;;;;;;16.77;8.63;;;4.90;99.90;;;;;;5010154;28;20382;-67
2021/12/26 11:08:24;;;;;;;14.07;8.27;;;4.90;99.90;;;;;;4990902;28;20029;-66
2021/12/26 11:10:53;;;;;;;13.63;7.68;;;5.00;99.90;;;;;;4998498;28;20140;-66
2021/12/26 11:13:21;;;;;;;17.50;8.07;;;5.00;99.90;;;;;;5000551;28;20056;-65
2021/12/26 11:15:49;;;;;;;13.38;7.75;;;5.00;99.90;;;;;;4993406;28;20391;-67
2021/12/26 11:18:18;;;;;;;12.98;7.70;;;5.10;99.90;;;;;;4989607;28;20113;-68
2021/12/26 11:20:54;;;;;;;12.25;7.47;;;5.10;99.90;;;;;;4993910;28;20026;-66
2021/12/26 11:23:23;;;;;;;11.65;7.15;;;5.10;99.90;;;;;;4993873;28;20118;-67
2021/12/26 11:26:09;;;;;;;9.75;6.45;;;5.20;99.90;;;;;;4993658;28;20417;-66
2021/12/26 11:28:47;;;;;;;13.27;7.10;;;5.20;99.90;;;;;;5012850;28;20394;-65
2021/12/26 11:31:16;;;;;;;10.02;6.35;;;5.30;99.90;;;;;;5010243;28;20053;-67
2021/12/26 11:33:42;;;;;;;10.95;6.80;;;5.30;99.90;;;;;;4990830;28;20057;-66
2021/12/26 11:36:11;;;;;;;11.73;6.70;;;5.30;99.90;;;;;;4991997;28;20057;-66
2021/12/26 11:38:38;;;;;;;11.13;6.60;;;5.30;99.90;;;;;;5001337;28;20032;-66
2021/12/26 11:41:07;;;;;;;11.45;6.43;;;5.30;99.90;;;;;;4992646;28;20041;-66
2021/12/26 11:43:57;;;;;;;10.38;6.22;;;5.30;99.90;;;;;;4992021;28;20119;-66
2021/12/26 11:46:44;;;;;;;9.80;6.57;;;5.30;99.90;;;;;;4992205;28;20049;-66
2021/12/26 11:49:43;;;;;;;10.52;6.50;;;5.30;99.90;;;;;;4989181;28;20033;-66
2021/12/26 11:52:31;;;;;;;9.93;6.18;;;5.40;99.90;;;;;;4992731;28;20512;-68
2021/12/26 11:55:20;;;;;;;9.55;6.28;;;5.30;99.90;;;;;;4992141;28;20036;-68
2021/12/26 11:58:11;;;;;;;9.18;5.95;;;5.40;99.90;;;;;;4992531;28;20112;-66
2021/12/26 12:00:39;;;;;;;9.27;5.82;;;5.40;99.90;;;;;;4992642;28;20049;-68
2021/12/26 12:03:15;;;;;;;10.18;5.90;;;5.40;99.90;;;;;;4988863;28;20029;-66
2021/12/26 12:05:43;;;;;;;8.80;5.88;;;5.40;99.90;;;;;;4988574;28;20123;-69
2021/12/26 12:08:10;;;;;;;8.88;6.00;;;5.40;99.90;;;;;;4989965;28;20060;-68
2021/12/26 12:10:46;;;;;;;7.68;5.60;;;5.40;99.90;;;;;;4991499;28;20637;-66
2021/12/26 12:13:43;;;;;;;9.20;6.07;;;5.50;99.90;;;;;;4991958;28;20033;-68
2021/12/26 12:16:11;;;;;;;8.63;5.85;;;5.50;99.90;;;;;;4984069;28;20038;-67
2021/12/26 12:18:54;;;;;;;9.35;6.07;;;5.50;99.90;;;;;;4995985;28;20030;-68
2021/12/26 12:21:44;;;;;;;7.70;5.40;;;5.50;99.90;;;;;;4993366;28;20038;-67
2021/12/26 12:24:23;;;;;;;7.85;5.45;;;5.50;99.90;;;;;;4995726;28;20490;-65
2021/12/26 12:27:22;;;;;;;8.55;5.75;;;5.50;99.90;;;;;;4995161;28;20394;-67
2021/12/26 12:29:50;;;;;;;8.25;6.03;;;5.60;99.90;;;;;;4988396;28;20406;-67
2021/12/26 12:32:26;;;;;;;6.72;5.05;;;5.60;99.90;;;;;;4996880;28;20057;-64
2021/12/26 12:34:57;;;;;;;8.02;5.20;;;5.60;99.90;;;;;;4997053;28;20025;-67
2021/12/26 12:37:50;;;;;;;9.35;5.40;;;5.60;99.90;;;;;;4999038;28;20036;-67
2021/12/26 12:40:25;;;;;;;8.70;5.43;;;5.70;99.90;;;;;;4995475;28;20099;-66
2021/12/26 12:43:19;;;;;;;7.50;5.05;;;5.70;99.90;;;;;;4977632;28;20133;-66
2021/12/26 12:48:33;;;;;;;6.72;4.82;;;5.70;99.90;;;;;;5013258;28;20109;-65
2021/12/26 12:51:16;;;;;;;7.55;5.18;;;5.70;99.90;;;;;;4997253;28;20068;-64
2021/12/26 12:53:58;;;;;;;7.72;4.72;;;5.70;99.90;;;;;;4990242;28;20026;-64
2021/12/26 12:56:29;;;;;;;;;;;5.70;99.90;;;;;;4994370;28;20125;-65
2021/12/26 12:59:16;;;;;;;6.60;5.22;;;5.80;99.90;;;;;;5010821;28;19916;-65